sensor_id;sensor_type;location;lat;lon;timestamp;temperature;humidity
5136;DHT22;2586;48.710;9.202;2023-03-03T00:01:30;2.20;1.00
5136;DHT22;2586;48.710;9.202;2023-03-03T00:03:57;2.20;1.00
5136;DHT22;2586;48.710;9.202;2023-03-03T00:06:23;2.20;1.00
5136;DHT22;2586;48.710;9.202;2023-03-03T00:08:50;2.20;1.00
5136;DHT22;2586;48.710;9.202;2023-03-03T00:11:15;2.10;25.50
5136;DHT22;2586;48.710;9.202;2023-03-03T00:13:45;2.00;96.30
5136;DHT22;2586;48.710;9.202;2023-03-03T00:18:55;1.90;99.90
5136;DHT22;2586;48.710;9.202;2023-03-03T00:21:39;1.80;1.00
5136;DHT22;2586;48.710;9.202;2023-03-03T00:24:24;1.80;1.00
5136;DHT22;2586;48.710;9.202;2023-03-03T00:26:53;1.70;1.00
5136;DHT22;2586;48.710;9.202;2023-03-03T00:29:23;1.60;1.00
5136;DHT22;2586;48.710;9.202;2023-03-03T00:31:50;1.50;9.20
5136;DHT22;2586;48.710;9.202;2023-03-03T00:36:42;1.50;56.20
5136;DHT22;2586;48.710;9.202;2023-03-03T00:39:30;1.50;84.20
5136;DHT22;2586;48.710;9.202;2023-03-03T00:41:59;1.40;99.90
5136;DHT22;2586;48.710;9.202;2023-03-03T00:47:28;1.10;1.00
5136;DHT22;2586;48.710;9.202;2023-03-03T00:52:34;0.80;28.10
5136;DHT22;2586;48.710;9.202;2023-03-03T00:54:59;0.80;99.90
5136;DHT22;2586;48.710;9.202;2023-03-03T00:57:25;0.70;99.90
5136;DHT22;2586;48.710;9.202;2023-03-03T00:59:50;0.80;99.90
5136;DHT22;2586;48.710;9.202;2023-03-03T01:02:16;0.80;99.90
5136;DHT22;2586;48.710;9.202;2023-03-03T01:04:43;0.80;99.90
5136;DHT22;2586;48.710;9.202;2023-03-03T01:07:12;0.70;99.90
5136;DHT22;2586;48.710;9.202;2023-03-03T01:09:38;0.70;99.90
5136;DHT22;2586;48.710;9.202;2023-03-03T01:12:04;0.70;99.90
5136;DHT22;2586;48.710;9.202;2023-03-03T01:14:30;0.70;99.90
5136;DHT22;2586;48.710;9.202;2023-03-03T01:16:56;0.70;99.90
5136;DHT22;2586;48.710;9.202;2023-03-03T01:19:22;0.60;99.90
5136;DHT22;2586;48.710;9.202;2023-03-03T01:21:48;0.60;99.90
5136;DHT22;2586;48.710;9.202;2023-03-03T01:24:13;0.60;99.90
5136;DHT22;2586;48.710;9.202;2023-03-03T01:26:39;0.60;99.90
5136;DHT22;2586;48.710;9.202;2023-03-03T01:29:04;0.60;99.90
5136;DHT22;2586;48.710;9.202;2023-03-03T01:31:30;0.50;99.90
5136;DHT22;2586;48.710;9.202;2023-03-03T01:33:55;0.60;99.90
5136;DHT22;2586;48.710;9.202;2023-03-03T01:36:25;0.50;99.90
5136;DHT22;2586;48.710;9.202;2023-03-03T01:38:51;0.50;99.90
5136;DHT22;2586;48.710;9.202;2023-03-03T01:41:17;0.50;99.90
5136;DHT22;2586;48.710;9.202;2023-03-03T01:43:45;0.50;99.90
5136;DHT22;2586;48.710;9.202;2023-03-03T01:49:00;0.50;99.90
5136;DHT22;2586;48.710;9.202;2023-03-03T01:51:48;0.50;99.90
5136;DHT22;2586;48.710;9.202;2023-03-03T01:54:23;0.40;99.90
5136;DHT22;2586;48.710;9.202;2023-03-03T01:56:51;0.40;99.90
5136;DHT22;2586;48.710;9.202;2023-03-03T01:59:28;0.40;99.90
5136;DHT22;2586;48.710;9.202;2023-03-03T02:01:56;0.30;99.90
5136;DHT22;2586;48.710;9.202;2023-03-03T02:04:22;0.10;1.00
5136;DHT22;2586;48.710;9.202;2023-03-03T02:06:57;0.10;1.00
5136;DHT22;2586;48.710;9.202;2023-03-03T02:09:31;0.00;1.00
5136;DHT22;2586;48.710;9.202;2023-03-03T02:12:06;-0.10;99.90
5136;DHT22;2586;48.710;9.202;2023-03-03T02:14:32;-0.10;30.80
5136;DHT22;2586;48.710;9.202;2023-03-03T02:16:58;-0.20;81.20
5136;DHT22;2586;48.710;9.202;2023-03-03T02:22:07;-0.30;99.90
5136;DHT22;2586;48.710;9.202;2023-03-03T02:24:44;-0.10;1.00
5136;DHT22;2586;48.710;9.202;2023-03-03T02:27:12;-0.10;99.90
5136;DHT22;2586;48.710;9.202;2023-03-03T02:29:38;-0.10;99.90
5136;DHT22;2586;48.710;9.202;2023-03-03T02:32:04;-0.10;99.90
5136;DHT22;2586;48.710;9.202;2023-03-03T02:34:30;-0.10;1.00
5136;DHT22;2586;48.710;9.202;2023-03-03T02:36:55;0.00;1.00
5136;DHT22;2586;48.710;9.202;2023-03-03T02:39:25;-0.10;99.90
5136;DHT22;2586;48.710;9.202;2023-03-03T02:42:08;-0.10;99.90
5136;DHT22;2586;48.710;9.202;2023-03-03T02:44:37;-0.10;99.90
5136;DHT22;2586;48.710;9.202;2023-03-03T02:47:02;-0.10;99.90
5136;DHT22;2586;48.710;9.202;2023-03-03T02:49:30;-0.10;1.00
5136;DHT22;2586;48.710;9.202;2023-03-03T02:51:57;0.00;1.00
5136;DHT22;2586;48.710;9.202;2023-03-03T02:54:25;0.00;1.00
5136;DHT22;2586;48.710;9.202;2023-03-03T02:56:51;0.10;1.00
5136;DHT22;2586;48.710;9.202;2023-03-03T02:59:17;0.00;99.90
5136;DHT22;2586;48.710;9.202;2023-03-03T03:01:43;0.10;1.00
5136;DHT22;2586;48.710;9.202;2023-03-03T03:04:12;0.20;1.00
5136;DHT22;2586;48.710;9.202;2023-03-03T03:06:39;0.20;1.00
5136;DHT22;2586;48.710;9.202;2023-03-03T03:09:06;0.20;1.00
5136;DHT22;2586;48.710;9.202;2023-03-03T03:11:32;0.20;1.00
5136;DHT22;2586;48.710;9.202;2023-03-03T03:14:00;0.20;1.00
5136;DHT22;2586;48.710;9.202;2023-03-03T03:16:25;0.20;1.00
5136;DHT22;2586;48.710;9.202;2023-03-03T03:18:51;0.20;1.00
5136;DHT22;2586;48.710;9.202;2023-03-03T03:21:16;0.30;99.90
5136;DHT22;2586;48.710;9.202;2023-03-03T03:23:42;0.40;99.90
5136;DHT22;2586;48.710;9.202;2023-03-03T03:26:08;0.40;99.90
5136;DHT22;2586;48.710;9.202;2023-03-03T03:28:34;0.50;99.90
5136;DHT22;2586;48.710;9.202;2023-03-03T03:31:00;0.50;99.90
5136;DHT22;2586;48.710;9.202;2023-03-03T03:33:26;0.50;99.90
5136;DHT22;2586;48.710;9.202;2023-03-03T03:35:55;0.50;99.90
5136;DHT22;2586;48.710;9.202;2023-03-03T03:38:22;0.60;99.90
5136;DHT22;2586;48.710;9.202;2023-03-03T03:40:48;0.60;99.90
5136;DHT22;2586;48.710;9.202;2023-03-03T03:43:14;0.80;99.90
5136;DHT22;2586;48.710;9.202;2023-03-03T03:45:43;0.80;99.90
5136;DHT22;2586;48.710;9.202;2023-03-03T03:48:09;0.80;1.00
5136;DHT22;2586;48.710;9.202;2023-03-03T03:50:35;0.80;1.00
5136;DHT22;2586;48.710;9.202;2023-03-03T03:53:01;0.80;1.00
5136;DHT22;2586;48.710;9.202;2023-03-03T03:55:26;0.70;1.00
5136;DHT22;2586;48.710;9.202;2023-03-03T03:57:53;0.70;1.00
5136;DHT22;2586;48.710;9.202;2023-03-03T04:00:19;0.80;1.00
5136;DHT22;2586;48.710;9.202;2023-03-03T04:02:45;0.80;1.00
5136;DHT22;2586;48.710;9.202;2023-03-03T04:05:10;0.70;1.00
5136;DHT22;2586;48.710;9.202;2023-03-03T04:07:36;0.80;1.00
5136;DHT22;2586;48.710;9.202;2023-03-03T04:10:02;0.80;1.00
5136;DHT22;2586;48.710;9.202;2023-03-03T04:12:27;0.80;99.90
5136;DHT22;2586;48.710;9.202;2023-03-03T04:14:53;0.90;99.90
5136;DHT22;2586;48.710;9.202;2023-03-03T04:17:21;1.00;99.90
5136;DHT22;2586;48.710;9.202;2023-03-03T04:19:46;1.10;99.90
5136;DHT22;2586;48.710;9.202;2023-03-03T04:22:12;1.10;1.00
5136;DHT22;2586;48.710;9.202;2023-03-03T04:24:39;1.20;1.00
5136;DHT22;2586;48.710;9.202;2023-03-03T04:27:05;1.20;1.00
5136;DHT22;2586;48.710;9.202;2023-03-03T04:29:34;1.30;1.00
5136;DHT22;2586;48.710;9.202;2023-03-03T04:31:59;1.30;1.00
5136;DHT22;2586;48.710;9.202;2023-03-03T04:34:25;1.40;1.00
5136;DHT22;2586;48.710;9.202;2023-03-03T04:36:51;1.40;99.90
5136;DHT22;2586;48.710;9.202;2023-03-03T04:39:16;1.40;99.90
5136;DHT22;2586;48.710;9.202;2023-03-03T04:41:42;1.50;99.90
5136;DHT22;2586;48.710;9.202;2023-03-03T04:44:07;1.50;99.90
5136;DHT22;2586;48.710;9.202;2023-03-03T04:46:33;1.60;99.90
5136;DHT22;2586;48.710;9.202;2023-03-03T04:48:58;1.60;99.90
5136;DHT22;2586;48.710;9.202;2023-03-03T04:51:24;1.60;58.00
5136;DHT22;2586;48.710;9.202;2023-03-03T04:53:50;1.70;1.00
5136;DHT22;2586;48.710;9.202;2023-03-03T04:56:15;1.60;1.00
5136;DHT22;2586;48.710;9.202;2023-03-03T04:58:41;1.60;1.00
5136;DHT22;2586;48.710;9.202;2023-03-03T05:01:09;1.60;99.90
5136;DHT22;2586;48.710;9.202;2023-03-03T05:03:35;1.70;78.60
5136;DHT22;2586;48.710;9.202;2023-03-03T05:06:00;1.70;13.40
5136;DHT22;2586;48.710;9.202;2023-03-03T05:08:26;1.70;1.00
5136;DHT22;2586;48.710;9.202;2023-03-03T05:10:53;1.80;1.00
5136;DHT22;2586;48.710;9.202;2023-03-03T05:13:19;1.80;1.00
5136;DHT22;2586;48.710;9.202;2023-03-03T05:15:52;1.90;1.00
5136;DHT22;2586;48.710;9.202;2023-03-03T05:18:18;1.80;1.00
5136;DHT22;2586;48.710;9.202;2023-03-03T05:20:44;1.80;1.00
5136;DHT22;2586;48.710;9.202;2023-03-03T05:23:10;1.80;1.00
5136;DHT22;2586;48.710;9.202;2023-03-03T05:25:35;1.80;1.00
5136;DHT22;2586;48.710;9.202;2023-03-03T05:28:01;1.80;1.00
5136;DHT22;2586;48.710;9.202;2023-03-03T05:30:28;1.90;1.00
5136;DHT22;2586;48.710;9.202;2023-03-03T05:32:54;1.90;1.00
5136;DHT22;2586;48.710;9.202;2023-03-03T05:35:20;1.90;1.00
5136;DHT22;2586;48.710;9.202;2023-03-03T05:37:45;1.80;1.00
5136;DHT22;2586;48.710;9.202;2023-03-03T05:40:13;1.80;1.00
5136;DHT22;2586;48.710;9.202;2023-03-03T05:42:39;1.80;1.00
5136;DHT22;2586;48.710;9.202;2023-03-03T05:45:05;1.80;1.00
5136;DHT22;2586;48.710;9.202;2023-03-03T05:47:31;1.80;1.00
5136;DHT22;2586;48.710;9.202;2023-03-03T05:49:56;1.70;1.00
5136;DHT22;2586;48.710;9.202;2023-03-03T05:52:22;1.80;1.00
5136;DHT22;2586;48.710;9.202;2023-03-03T05:54:49;1.70;1.00
5136;DHT22;2586;48.710;9.202;2023-03-03T05:57:14;1.70;1.00
5136;DHT22;2586;48.710;9.202;2023-03-03T05:59:40;1.70;1.00
5136;DHT22;2586;48.710;9.202;2023-03-03T06:02:05;1.80;1.00
5136;DHT22;2586;48.710;9.202;2023-03-03T06:04:32;1.80;1.00
5136;DHT22;2586;48.710;9.202;2023-03-03T06:06:58;1.90;1.00
5136;DHT22;2586;48.710;9.202;2023-03-03T06:09:23;2.00;99.90
5136;DHT22;2586;48.710;9.202;2023-03-03T06:11:50;2.00;99.90
5136;DHT22;2586;48.710;9.202;2023-03-03T06:14:19;2.00;1.00
5136;DHT22;2586;48.710;9.202;2023-03-03T06:16:46;2.10;1.00
5136;DHT22;2586;48.710;9.202;2023-03-03T06:19:11;2.10;1.00
5136;DHT22;2586;48.710;9.202;2023-03-03T06:21:37;2.10;99.90
5136;DHT22;2586;48.710;9.202;2023-03-03T06:24:03;2.20;99.90
5136;DHT22;2586;48.710;9.202;2023-03-03T06:26:28;2.30;99.90
5136;DHT22;2586;48.710;9.202;2023-03-03T06:28:54;2.30;99.90
5136;DHT22;2586;48.710;9.202;2023-03-03T06:31:20;2.30;87.30
5136;DHT22;2586;48.710;9.202;2023-03-03T06:33:46;2.30;52.60
5136;DHT22;2586;48.710;9.202;2023-03-03T06:36:11;2.40;1.00
5136;DHT22;2586;48.710;9.202;2023-03-03T06:38:37;2.40;27.00
5136;DHT22;2586;48.710;9.202;2023-03-03T06:41:03;2.40;6.80
5136;DHT22;2586;48.710;9.202;2023-03-03T06:43:32;2.40;1.00
5136;DHT22;2586;48.710;9.202;2023-03-03T06:45:58;2.50;1.00
5136;DHT22;2586;48.710;9.202;2023-03-03T06:48:23;2.60;1.00
5136;DHT22;2586;48.710;9.202;2023-03-03T06:50:49;2.50;1.00
5136;DHT22;2586;48.710;9.202;2023-03-03T06:53:16;2.60;99.90
5136;DHT22;2586;48.710;9.202;2023-03-03T06:55:42;2.60;99.90
5136;DHT22;2586;48.710;9.202;2023-03-03T06:58:14;2.60;99.90
5136;DHT22;2586;48.710;9.202;2023-03-03T07:00:43;2.70;99.90
5136;DHT22;2586;48.710;9.202;2023-03-03T07:03:17;2.70;99.90
5136;DHT22;2586;48.710;9.202;2023-03-03T07:05:43;2.70;99.90
5136;DHT22;2586;48.710;9.202;2023-03-03T07:08:17;2.70;99.90
5136;DHT22;2586;48.710;9.202;2023-03-03T07:10:44;2.80;99.90
5136;DHT22;2586;48.710;9.202;2023-03-03T07:13:20;2.80;76.40
5136;DHT22;2586;48.710;9.202;2023-03-03T07:15:48;2.80;18.20
5136;DHT22;2586;48.710;9.202;2023-03-03T07:18:50;2.80;99.90
5136;DHT22;2586;48.710;9.202;2023-03-03T07:21:20;2.90;71.30
5136;DHT22;2586;48.710;9.202;2023-03-03T07:23:48;3.00;1.00
5136;DHT22;2586;48.710;9.202;2023-03-03T07:26:20;3.00;1.00
5136;DHT22;2586;48.710;9.202;2023-03-03T07:31:41;3.10;1.00
5136;DHT22;2586;48.710;9.202;2023-03-03T07:36:45;3.30;1.00
5136;DHT22;2586;48.710;9.202;2023-03-03T07:39:27;3.30;1.00
5136;DHT22;2586;48.710;9.202;2023-03-03T07:44:44;3.10;1.00
5136;DHT22;2586;48.710;9.202;2023-03-03T07:49:41;3.20;1.00
5136;DHT22;2586;48.710;9.202;2023-03-03T07:52:24;3.10;1.00
5136;DHT22;2586;48.710;9.202;2023-03-03T07:54:51;3.20;1.00
5136;DHT22;2586;48.710;9.202;2023-03-03T07:57:27;3.30;1.00
5136;DHT22;2586;48.710;9.202;2023-03-03T07:59:54;3.40;99.90
5136;DHT22;2586;48.710;9.202;2023-03-03T08:04:54;3.40;99.90
5136;DHT22;2586;48.710;9.202;2023-03-03T08:07:21;3.60;1.00
5136;DHT22;2586;48.710;9.202;2023-03-03T08:12:26;3.70;99.90
5136;DHT22;2586;48.710;9.202;2023-03-03T08:14:54;3.80;99.90
5136;DHT22;2586;48.710;9.202;2023-03-03T08:17:33;3.70;99.90
5136;DHT22;2586;48.710;9.202;2023-03-03T08:20:29;3.90;99.90
5136;DHT22;2586;48.710;9.202;2023-03-03T08:22:53;4.20;99.90
5136;DHT22;2586;48.710;9.202;2023-03-03T08:25:19;4.50;99.90
5136;DHT22;2586;48.710;9.202;2023-03-03T08:27:44;4.70;99.90
5136;DHT22;2586;48.710;9.202;2023-03-03T08:30:10;4.90;99.90
5136;DHT22;2586;48.710;9.202;2023-03-03T08:32:36;5.20;99.90
5136;DHT22;2586;48.710;9.202;2023-03-03T08:35:02;5.20;99.90
5136;DHT22;2586;48.710;9.202;2023-03-03T08:37:28;5.20;99.90
5136;DHT22;2586;48.710;9.202;2023-03-03T08:39:53;5.40;99.90
5136;DHT22;2586;48.710;9.202;2023-03-03T08:42:19;5.30;99.90
5136;DHT22;2586;48.710;9.202;2023-03-03T08:44:44;4.90;99.90
5136;DHT22;2586;48.710;9.202;2023-03-03T08:47:10;4.90;99.90
5136;DHT22;2586;48.710;9.202;2023-03-03T08:49:35;5.20;99.90
5136;DHT22;2586;48.710;9.202;2023-03-03T08:52:02;5.40;99.90
5136;DHT22;2586;48.710;9.202;2023-03-03T08:54:28;5.90;99.90
5136;DHT22;2586;48.710;9.202;2023-03-03T08:56:53;6.30;92.80
5136;DHT22;2586;48.710;9.202;2023-03-03T08:59:19;6.40;71.30
5136;DHT22;2586;48.710;9.202;2023-03-03T09:01:44;6.60;57.70
5136;DHT22;2586;48.710;9.202;2023-03-03T09:04:11;6.60;45.00
5136;DHT22;2586;48.710;9.202;2023-03-03T09:06:36;6.90;39.90
5136;DHT22;2586;48.710;9.202;2023-03-03T09:09:02;7.30;30.50
5136;DHT22;2586;48.710;9.202;2023-03-03T09:11:29;7.50;14.50
5136;DHT22;2586;48.710;9.202;2023-03-03T09:14:17;7.50;12.80
5136;DHT22;2586;48.710;9.202;2023-03-03T09:16:52;7.40;3.90
5136;DHT22;2586;48.710;9.202;2023-03-03T09:19:24;7.50;3.10
5136;DHT22;2586;48.710;9.202;2023-03-03T09:21:54;7.60;1.00
5136;DHT22;2586;48.710;9.202;2023-03-03T09:24:30;7.40;1.00
5136;DHT22;2586;48.710;9.202;2023-03-03T09:26:57;7.30;1.00
5136;DHT22;2586;48.710;9.202;2023-03-03T09:29:35;7.20;1.00
5136;DHT22;2586;48.710;9.202;2023-03-03T09:32:29;7.30;1.00
5136;DHT22;2586;48.710;9.202;2023-03-03T09:34:56;7.30;1.00
5136;DHT22;2586;48.710;9.202;2023-03-03T09:37:33;7.50;3.30
5136;DHT22;2586;48.710;9.202;2023-03-03T09:43:03;7.30;1.00
5136;DHT22;2586;48.710;9.202;2023-03-03T09:48:41;7.00;4.80
5136;DHT22;2586;48.710;9.202;2023-03-03T09:51:34;7.20;2.70
5136;DHT22;2586;48.710;9.202;2023-03-03T09:54:25;7.50;1.10
5136;DHT22;2586;48.710;9.202;2023-03-03T09:57:16;7.70;1.00
5136;DHT22;2586;48.710;9.202;2023-03-03T10:08:30;8.60;1.00
5136;DHT22;2586;48.710;9.202;2023-03-03T10:16:44;8.90;1.00
5136;DHT22;2586;48.710;9.202;2023-03-03T10:19:20;9.00;1.00
5136;DHT22;2586;48.710;9.202;2023-03-03T10:28:06;8.70;1.00
5136;DHT22;2586;48.710;9.202;2023-03-03T10:36:24;9.50;1.00
5136;DHT22;2586;48.710;9.202;2023-03-03T10:45:28;9.90;1.00
5136;DHT22;2586;48.710;9.202;2023-03-03T10:48:17;10.40;1.00
5136;DHT22;2586;48.710;9.202;2023-03-03T10:53:43;11.30;1.00
5136;DHT22;2586;48.710;9.202;2023-03-03T10:59:19;11.20;1.00
5136;DHT22;2586;48.710;9.202;2023-03-03T11:07:49;12.10;1.00
5136;DHT22;2586;48.710;9.202;2023-03-03T11:18:32;10.40;1.00
5136;DHT22;2586;48.710;9.202;2023-03-03T11:23:57;11.00;1.00
5136;DHT22;2586;48.710;9.202;2023-03-03T11:29:41;11.10;1.00
5136;DHT22;2586;48.710;9.202;2023-03-03T11:35:11;11.00;1.00
5136;DHT22;2586;48.710;9.202;2023-03-03T11:38:00;10.40;1.00
5136;DHT22;2586;48.710;9.202;2023-03-03T11:40:55;10.30;1.00
5136;DHT22;2586;48.710;9.202;2023-03-03T11:48:58;9.70;1.00
5136;DHT22;2586;48.710;9.202;2023-03-03T11:51:43;9.60;1.00
5136;DHT22;2586;48.710;9.202;2023-03-03T11:54:19;9.60;1.00
5136;DHT22;2586;48.710;9.202;2023-03-03T11:56:47;9.80;1.00
5136;DHT22;2586;48.710;9.202;2023-03-03T12:02:11;9.80;1.00
5136;DHT22;2586;48.710;9.202;2023-03-03T12:04:48;10.40;1.00
5136;DHT22;2586;48.710;9.202;2023-03-03T12:07:31;11.80;1.00
5136;DHT22;2586;48.710;9.202;2023-03-03T12:10:31;13.10;1.00
5136;DHT22;2586;48.710;9.202;2023-03-03T12:13:02;13.80;1.00
5136;DHT22;2586;48.710;9.202;2023-03-03T12:16:07;13.90;1.00
5136;DHT22;2586;48.710;9.202;2023-03-03T12:18:51;14.60;1.00
5136;DHT22;2586;48.710;9.202;2023-03-03T12:24:12;14.90;1.00
5136;DHT22;2586;48.710;9.202;2023-03-03T12:29:49;15.70;1.00
5136;DHT22;2586;48.710;9.202;2023-03-03T12:32:44;15.70;1.00
5136;DHT22;2586;48.710;9.202;2023-03-03T12:35:30;16.00;1.00
5136;DHT22;2586;48.710;9.202;2023-03-03T12:49:19;16.30;1.00
5136;DHT22;2586;48.710;9.202;2023-03-03T12:52:11;16.30;1.00
5136;DHT22;2586;48.710;9.202;2023-03-03T12:57:33;16.60;1.00
5136;DHT22;2586;48.710;9.202;2023-03-03T13:00:55;16.80;1.00
5136;DHT22;2586;48.710;9.202;2023-03-03T13:03:47;17.20;1.00
5136;DHT22;2586;48.710;9.202;2023-03-03T13:09:17;17.40;1.00
5136;DHT22;2586;48.710;9.202;2023-03-03T13:14:43;17.20;1.00
5136;DHT22;2586;48.710;9.202;2023-03-03T13:17:21;17.40;1.00
5136;DHT22;2586;48.710;9.202;2023-03-03T13:19:58;17.00;1.00
5136;DHT22;2586;48.710;9.202;2023-03-03T13:22:31;16.10;1.00
5136;DHT22;2586;48.710;9.202;2023-03-03T13:25:28;15.90;1.00
5136;DHT22;2586;48.710;9.202;2023-03-03T13:28:01;16.00;1.00
5136;DHT22;2586;48.710;9.202;2023-03-03T13:30:33;14.70;1.00
5136;DHT22;2586;48.710;9.202;2023-03-03T13:33:08;15.60;1.00
5136;DHT22;2586;48.710;9.202;2023-03-03T13:35:58;16.30;1.00
5136;DHT22;2586;48.710;9.202;2023-03-03T13:38:30;16.50;1.00
5136;DHT22;2586;48.710;9.202;2023-03-03T13:43:48;15.70;1.00
5136;DHT22;2586;48.710;9.202;2023-03-03T13:49:06;15.50;1.00
5136;DHT22;2586;48.710;9.202;2023-03-03T13:52:04;15.70;1.00
5136;DHT22;2586;48.710;9.202;2023-03-03T13:54:35;16.40;1.00
5136;DHT22;2586;48.710;9.202;2023-03-03T13:57:43;16.80;1.00
5136;DHT22;2586;48.710;9.202;2023-03-03T14:03:05;17.90;1.00
5136;DHT22;2586;48.710;9.202;2023-03-03T14:05:49;17.90;1.00
5136;DHT22;2586;48.710;9.202;2023-03-03T14:11:28;17.60;1.00
5136;DHT22;2586;48.710;9.202;2023-03-03T14:14:19;17.90;1.00
5136;DHT22;2586;48.710;9.202;2023-03-03T14:17:26;18.20;1.00
5136;DHT22;2586;48.710;9.202;2023-03-03T14:20:18;18.20;1.00
5136;DHT22;2586;48.710;9.202;2023-03-03T14:23:50;18.10;1.00
5136;DHT22;2586;48.710;9.202;2023-03-03T14:25:57;18.40;1.00
5136;DHT22;2586;48.710;9.202;2023-03-03T14:28:26;18.20;1.00
5136;DHT22;2586;48.710;9.202;2023-03-03T14:30:55;18.20;1.00
5136;DHT22;2586;48.710;9.202;2023-03-03T14:33:26;17.60;1.00
5136;DHT22;2586;48.710;9.202;2023-03-03T14:38:45;17.30;1.00
5136;DHT22;2586;48.710;9.202;2023-03-03T14:41:15;17.50;1.00
5136;DHT22;2586;48.710;9.202;2023-03-03T14:43:44;17.50;1.00
5136;DHT22;2586;48.710;9.202;2023-03-03T14:49:45;17.80;1.00
5136;DHT22;2586;48.710;9.202;2023-03-03T14:51:47;18.20;1.00
5136;DHT22;2586;48.710;9.202;2023-03-03T14:54:27;18.40;1.00
5136;DHT22;2586;48.710;9.202;2023-03-03T14:59:29;18.00;1.00
5136;DHT22;2586;48.710;9.202;2023-03-03T15:04:42;18.30;1.00
5136;DHT22;2586;48.710;9.202;2023-03-03T15:07:32;18.40;1.00
5136;DHT22;2586;48.710;9.202;2023-03-03T15:09:59;18.00;1.00
5136;DHT22;2586;48.710;9.202;2023-03-03T15:12:34;17.90;1.00
5136;DHT22;2586;48.710;9.202;2023-03-03T15:15:06;17.70;1.00
5136;DHT22;2586;48.710;9.202;2023-03-03T15:17:37;17.80;1.00
5136;DHT22;2586;48.710;9.202;2023-03-03T15:23:46;17.90;1.00
5136;DHT22;2586;48.710;9.202;2023-03-03T15:26:12;18.00;1.00
5136;DHT22;2586;48.710;9.202;2023-03-03T15:32:35;17.70;1.00
5136;DHT22;2586;48.710;9.202;2023-03-03T15:39:56;17.10;1.00
5136;DHT22;2586;48.710;9.202;2023-03-03T15:45:43;17.20;1.00
5136;DHT22;2586;48.710;9.202;2023-03-03T15:56:47;16.90;1.00
5136;DHT22;2586;48.710;9.202;2023-03-03T16:02:14;16.30;1.00
5136;DHT22;2586;48.710;9.202;2023-03-03T16:05:12;16.30;1.00
5136;DHT22;2586;48.710;9.202;2023-03-03T16:07:57;15.20;1.00
5136;DHT22;2586;48.710;9.202;2023-03-03T16:19:10;15.50;1.00
5136;DHT22;2586;48.710;9.202;2023-03-03T16:33:20;13.90;1.00
5136;DHT22;2586;48.710;9.202;2023-03-03T16:39:14;13.10;1.00
5136;DHT22;2586;48.710;9.202;2023-03-03T16:50:21;10.50;1.00
5136;DHT22;2586;48.710;9.202;2023-03-03T16:53:00;10.00;1.00
5136;DHT22;2586;48.710;9.202;2023-03-03T16:55:46;9.50;1.00
5136;DHT22;2586;48.710;9.202;2023-03-03T17:04:50;8.60;1.00
5136;DHT22;2586;48.710;9.202;2023-03-03T17:24:31;7.40;1.00
5136;DHT22;2586;48.710;9.202;2023-03-03T17:27:22;7.30;1.00
5136;DHT22;2586;48.710;9.202;2023-03-03T17:35:43;7.00;1.00
5136;DHT22;2586;48.710;9.202;2023-03-03T17:38:18;6.90;1.00
5136;DHT22;2586;48.710;9.202;2023-03-03T17:41:02;6.90;1.00
5136;DHT22;2586;48.710;9.202;2023-03-03T17:43:50;6.80;1.00
5136;DHT22;2586;48.710;9.202;2023-03-03T17:47:01;6.70;1.00
5136;DHT22;2586;48.710;9.202;2023-03-03T17:58:10;6.50;1.00
5136;DHT22;2586;48.710;9.202;2023-03-03T18:14:30;6.20;1.00
5136;DHT22;2586;48.710;9.202;2023-03-03T18:20:11;6.10;1.00
5136;DHT22;2586;48.710;9.202;2023-03-03T18:22:46;6.00;1.00
5136;DHT22;2586;48.710;9.202;2023-03-03T18:25:18;5.90;1.00
5136;DHT22;2586;48.710;9.202;2023-03-03T18:27:47;5.80;1.00
5136;DHT22;2586;48.710;9.202;2023-03-03T18:30:56;5.80;6.70
5136;DHT22;2586;48.710;9.202;2023-03-03T18:33:55;5.70;13.00
5136;DHT22;2586;48.710;9.202;2023-03-03T18:38:53;5.70;30.70
5136;DHT22;2586;48.710;9.202;2023-03-03T18:41:25;5.60;36.40
5136;DHT22;2586;48.710;9.202;2023-03-03T18:44:01;5.60;58.30
5136;DHT22;2586;48.710;9.202;2023-03-03T18:46:45;5.50;59.00
5136;DHT22;2586;48.710;9.202;2023-03-03T18:49:11;5.40;79.60
5136;DHT22;2586;48.710;9.202;2023-03-03T19:04:42;5.00;99.90
5136;DHT22;2586;48.710;9.202;2023-03-03T19:07:27;5.00;99.90
5136;DHT22;2586;48.710;9.202;2023-03-03T19:12:47;4.90;99.90
5136;DHT22;2586;48.710;9.202;2023-03-03T19:18:02;4.80;99.90
5136;DHT22;2586;48.710;9.202;2023-03-03T19:21:05;4.80;99.90
5136;DHT22;2586;48.710;9.202;2023-03-03T19:23:52;4.70;99.90
5136;DHT22;2586;48.710;9.202;2023-03-03T19:37:21;4.70;99.90
5136;DHT22;2586;48.710;9.202;2023-03-03T19:40:24;4.70;99.90
5136;DHT22;2586;48.710;9.202;2023-03-03T19:46:18;4.60;99.90
5136;DHT22;2586;48.710;9.202;2023-03-03T19:49:24;4.50;99.90
5136;DHT22;2586;48.710;9.202;2023-03-03T19:57:45;4.40;99.90
5136;DHT22;2586;48.710;9.202;2023-03-03T20:14:13;4.10;1.00
5136;DHT22;2586;48.710;9.202;2023-03-03T20:16:43;4.00;1.00
5136;DHT22;2586;48.710;9.202;2023-03-03T20:22:39;3.90;1.00
5136;DHT22;2586;48.710;9.202;2023-03-03T20:25:59;3.90;1.00
5136;DHT22;2586;48.710;9.202;2023-03-03T20:31:04;3.80;1.00
5136;DHT22;2586;48.710;9.202;2023-03-03T20:44:25;3.50;1.00
5136;DHT22;2586;48.710;9.202;2023-03-03T20:58:25;3.00;1.00
5136;DHT22;2586;48.710;9.202;2023-03-03T21:01:09;3.00;18.90
5136;DHT22;2586;48.710;9.202;2023-03-03T21:03:38;3.10;99.90
5136;DHT22;2586;48.710;9.202;2023-03-03T21:08:49;3.10;1.00
5136;DHT22;2586;48.710;9.202;2023-03-03T21:13:55;3.00;1.00
5136;DHT22;2586;48.710;9.202;2023-03-03T21:21:33;2.80;20.00
5136;DHT22;2586;48.710;9.202;2023-03-03T21:23:59;2.70;99.90
5136;DHT22;2586;48.710;9.202;2023-03-03T21:26:54;2.70;99.90
5136;DHT22;2586;48.710;9.202;2023-03-03T21:29:31;2.70;99.90
5136;DHT22;2586;48.710;9.202;2023-03-03T21:32:02;2.60;99.90
5136;DHT22;2586;48.710;9.202;2023-03-03T21:34:40;2.60;99.90
5136;DHT22;2586;48.710;9.202;2023-03-03T21:37:11;2.50;99.90
5136;DHT22;2586;48.710;9.202;2023-03-03T21:39:42;2.50;99.90
5136;DHT22;2586;48.710;9.202;2023-03-03T21:42:15;2.40;99.90
5136;DHT22;2586;48.710;9.202;2023-03-03T21:44:48;2.20;99.90
5136;DHT22;2586;48.710;9.202;2023-03-03T21:47:19;2.10;99.90
5136;DHT22;2586;48.710;9.202;2023-03-03T21:49:47;2.10;99.90
5136;DHT22;2586;48.710;9.202;2023-03-03T21:52:15;2.10;99.90
5136;DHT22;2586;48.710;9.202;2023-03-03T21:54:45;2.10;99.90
5136;DHT22;2586;48.710;9.202;2023-03-03T21:57:11;2.10;99.90
5136;DHT22;2586;48.710;9.202;2023-03-03T21:59:36;2.10;1.00
5136;DHT22;2586;48.710;9.202;2023-03-03T22:02:03;2.10;1.00
5136;DHT22;2586;48.710;9.202;2023-03-03T22:04:28;2.00;1.00
5136;DHT22;2586;48.710;9.202;2023-03-03T22:06:54;2.10;1.00
5136;DHT22;2586;48.710;9.202;2023-03-03T22:09:20;2.10;1.00
5136;DHT22;2586;48.710;9.202;2023-03-03T22:11:46;2.10;1.00
5136;DHT22;2586;48.710;9.202;2023-03-03T22:14:12;2.10;1.00
5136;DHT22;2586;48.710;9.202;2023-03-03T22:16:37;2.10;1.00
5136;DHT22;2586;48.710;9.202;2023-03-03T22:19:04;2.10;1.00
5136;DHT22;2586;48.710;9.202;2023-03-03T22:21:30;2.10;1.00
5136;DHT22;2586;48.710;9.202;2023-03-03T22:23:56;2.10;1.00
5136;DHT22;2586;48.710;9.202;2023-03-03T22:26:22;2.10;1.00
5136;DHT22;2586;48.710;9.202;2023-03-03T22:28:48;2.10;1.00
5136;DHT22;2586;48.710;9.202;2023-03-03T22:31:17;2.20;1.00
5136;DHT22;2586;48.710;9.202;2023-03-03T22:33:44;2.10;99.90
5136;DHT22;2586;48.710;9.202;2023-03-03T22:36:10;2.10;99.90
5136;DHT22;2586;48.710;9.202;2023-03-03T22:38:35;2.10;99.90
5136;DHT22;2586;48.710;9.202;2023-03-03T22:41:01;2.10;99.90
5136;DHT22;2586;48.710;9.202;2023-03-03T22:43:27;2.10;99.90
5136;DHT22;2586;48.710;9.202;2023-03-03T22:45:54;2.00;99.90
5136;DHT22;2586;48.710;9.202;2023-03-03T22:48:20;2.00;1.00
5136;DHT22;2586;48.710;9.202;2023-03-03T22:50:48;1.80;1.00
5136;DHT22;2586;48.710;9.202;2023-03-03T22:53:13;1.80;1.00
5136;DHT22;2586;48.710;9.202;2023-03-03T22:55:39;1.80;1.00
5136;DHT22;2586;48.710;9.202;2023-03-03T22:58:06;1.80;1.00
5136;DHT22;2586;48.710;9.202;2023-03-03T23:00:33;1.70;1.00